createdAt,value
2023-01-18T00:00:50.957Z,98314.05
2023-01-18T00:03:03.719Z,98308.30
2023-01-18T00:05:15.362Z,98309.11
2023-01-18T00:07:27.605Z,98309.32
2023-01-18T00:09:39.296Z,98306.23
2023-01-18T00:11:51.594Z,98308.95
2023-01-18T00:14:03.903Z,98309.35
2023-01-18T00:16:21.411Z,98307.59
2023-01-18T00:18:36.176Z,98309.09
2023-01-18T00:20:47.874Z,98314.34
2023-01-18T00:23:01.908Z,98315.59
2023-01-18T00:25:13.597Z,98320.30
2023-01-18T00:27:25.386Z,98324.95
2023-01-18T00:29:37.791Z,98329.09
2023-01-18T00:31:49.525Z,98333.79
2023-01-18T00:34:01.805Z,98338.56
2023-01-18T00:36:16.595Z,98340.27
2023-01-18T00:38:29.359Z,98341.02
2023-01-18T00:40:40.847Z,98341.61
2023-01-18T00:43:11.866Z,98342.36
2023-01-18T00:45:24.103Z,98346.16
2023-01-18T00:47:36.277Z,98337.52
2023-01-18T00:49:47.863Z,98334.41
2023-01-18T00:51:59.549Z,98331.50
2023-01-18T00:54:11.561Z,98335.66
2023-01-18T00:56:23.850Z,98336.67
2023-01-18T00:58:37.674Z,98336.46
2023-01-18T01:00:52.982Z,98341.34
2023-01-18T01:03:05.261Z,98343.56
2023-01-18T01:05:45.104Z,98340.89
2023-01-18T01:07:57.212Z,98348.16
2023-01-18T01:10:10.326Z,98349.58
2023-01-18T01:12:40.857Z,98348.30
2023-01-18T01:15:11.727Z,98348.77
2023-01-18T01:17:42.942Z,98345.52
2023-01-18T01:20:13.366Z,98347.98
2023-01-18T01:22:44.406Z,98341.73
2023-01-18T01:25:15.241Z,98335.23
2023-01-18T01:27:27.449Z,98331.05
2023-01-18T01:29:39.233Z,98320.25
2023-01-18T01:31:51.020Z,98316.34
2023-01-18T01:34:02.609Z,98313.85
2023-01-18T01:36:25.964Z,98318.70
2023-01-18T01:38:37.858Z,98322.55
2023-01-18T01:40:58.145Z,98316.50
2023-01-18T01:43:13.542Z,98308.92
2023-01-18T01:45:28.589Z,98308.61
2023-01-18T01:47:44.577Z,98306.52
2023-01-18T01:50:02.222Z,98303.96
2023-01-18T01:52:19.933Z,98304.02
2023-01-18T01:54:37.481Z,98298.31
2023-01-18T01:56:53.852Z,98294.83
2023-01-18T01:59:06.462Z,98296.08
2023-01-18T02:01:18.430Z,98299.17
2023-01-18T02:03:31.476Z,98297.77
2023-01-18T02:05:46.877Z,98295.63
2023-01-18T02:08:01.221Z,98292.59
2023-01-18T02:10:12.887Z,98286.93
2023-01-18T02:12:25.939Z,98284.58
2023-01-18T02:14:38.314Z,98282.36
2023-01-18T02:17:15.403Z,98284.22
2023-01-18T02:20:07.031Z,98285.34
2023-01-18T02:22:28.125Z,98284.80
2023-01-18T02:24:52.306Z,98287.15
2023-01-18T02:27:15.155Z,98282.37
2023-01-18T02:29:48.552Z,98278.79
2023-01-18T02:32:06.635Z,98271.95
2023-01-18T02:34:49.103Z,98269.11
2023-01-18T02:37:21.065Z,98263.64
2023-01-18T02:39:50.699Z,98264.46
2023-01-18T02:42:44.034Z,98262.65
2023-01-18T02:45:15.796Z,98266.36
2023-01-18T02:47:29.119Z,98271.13
2023-01-18T02:49:40.805Z,98273.36
2023-01-18T02:52:05.404Z,98276.28
2023-01-18T02:54:24.670Z,98278.39
2023-01-18T02:56:46.177Z,98275.17
2023-01-18T02:59:16.301Z,98275.55
2023-01-18T03:01:34.821Z,98277.80
2023-01-18T03:03:48.582Z,98276.74
2023-01-18T03:06:02.731Z,98279.33
2023-01-18T03:08:21.827Z,98283.13
2023-01-18T03:10:44.126Z,98277.16
2023-01-18T03:13:00.793Z,98280.46
2023-01-18T03:15:45.110Z,98282.84
2023-01-18T03:18:02.283Z,98285.35
2023-01-18T03:20:18.961Z,98285.10
2023-01-18T03:22:55.849Z,98285.84
2023-01-18T03:25:10.245Z,98286.72
2023-01-18T03:27:40.965Z,98284.98
2023-01-18T03:30:11.628Z,98286.30
2023-01-18T03:32:42.635Z,98288.33
2023-01-18T03:34:57.104Z,98291.09
2023-01-18T03:37:14.920Z,98290.58
2023-01-18T03:39:51.809Z,98288.91
2023-01-18T03:42:09.332Z,98290.50
2023-01-18T03:44:36.371Z,98284.95
2023-01-18T03:46:48.569Z,98290.51
2023-01-18T03:49:00.980Z,98286.23
2023-01-18T03:51:23.621Z,98285.70
2023-01-18T03:53:42.886Z,98287.96
2023-01-18T03:56:03.689Z,98287.26
2023-01-18T03:58:21.961Z,98288.63
2023-01-18T04:00:34.027Z,98289.98
2023-01-18T04:02:48.211Z,98287.96
2023-01-18T04:05:04.567Z,98292.61
2023-01-18T04:07:16.970Z,98294.14
2023-01-18T04:09:28.480Z,98291.70
2023-01-18T04:11:40.561Z,98289.89
2023-01-18T04:13:54.393Z,98291.16
2023-01-18T04:16:06.936Z,98292.92
2023-01-18T04:18:18.789Z,98290.15
2023-01-18T04:20:30.993Z,98295.74
2023-01-18T04:22:43.094Z,98298.54
2023-01-18T04:24:54.671Z,98294.48
2023-01-18T04:27:06.769Z,98293.45
2023-01-18T04:29:18.555Z,98294.76
2023-01-18T04:31:59.137Z,98298.67
2023-01-18T04:34:13.983Z,98306.02
2023-01-18T04:36:28.649Z,98308.00
2023-01-18T04:38:40.531Z,98313.70
2023-01-18T04:40:52.424Z,98312.41
2023-01-18T04:43:04.727Z,98306.83
2023-01-18T04:45:18.366Z,98300.82
2023-01-18T04:47:30.477Z,98300.99
2023-01-18T04:49:42.143Z,98302.16
2023-01-18T04:51:54.347Z,98300.09
2023-01-18T04:54:06.336Z,98295.55
2023-01-18T04:56:18.337Z,98289.67
2023-01-18T04:58:30.430Z,98283.25
2023-01-18T05:00:42.465Z,98281.36
2023-01-18T05:02:54.222Z,98277.41
2023-01-18T05:05:06.619Z,98283.42
2023-01-18T05:07:18.307Z,98284.25
2023-01-18T05:09:30.508Z,98282.16
2023-01-18T05:11:43.385Z,98283.25
2023-01-18T05:13:56.149Z,98278.90
2023-01-18T05:16:14.534Z,98274.35
2023-01-18T05:18:26.575Z,98268.65
2023-01-18T05:20:38.571Z,98270.09
2023-01-18T05:22:50.357Z,98275.20
2023-01-18T05:25:02.064Z,98276.58
2023-01-18T05:27:15.251Z,98273.69
2023-01-18T05:29:27.168Z,98274.09
2023-01-18T05:31:39.389Z,98277.48
2023-01-18T05:33:51.561Z,98282.09
2023-01-18T05:36:04.272Z,98286.13
2023-01-18T05:38:15.988Z,98289.70
2023-01-18T05:40:28.269Z,98288.40
2023-01-18T05:42:39.949Z,98292.71
2023-01-18T05:44:51.746Z,98296.09
2023-01-18T05:47:03.635Z,98306.84
2023-01-18T05:49:15.624Z,98311.54
2023-01-18T05:51:27.416Z,98311.42
2023-01-18T05:53:40.025Z,98314.30
2023-01-18T05:56:00.137Z,98314.05
2023-01-18T05:58:12.066Z,98317.70
2023-01-18T06:00:23.898Z,98321.84
2023-01-18T06:02:35.741Z,98322.26
2023-01-18T06:04:48.103Z,98323.90
2023-01-18T06:06:59.979Z,98330.58
2023-01-18T06:09:11.669Z,98329.99
2023-01-18T06:11:23.591Z,98331.39
2023-01-18T06:13:35.773Z,98329.78
2023-01-18T06:15:49.676Z,98331.13
2023-01-18T06:18:02.411Z,98327.27
2023-01-18T06:20:14.922Z,98325.77
2023-01-18T06:22:26.606Z,98326.54
2023-01-18T06:24:39.585Z,98322.61
2023-01-18T06:26:51.740Z,98323.31
2023-01-18T06:29:03.718Z,98322.56
2023-01-18T06:31:15.627Z,98320.84
2023-01-18T06:33:27.507Z,98314.52
2023-01-18T06:35:39.906Z,98312.71
2023-01-18T06:37:52.620Z,98312.73
2023-01-18T06:40:05.634Z,98314.36
2023-01-18T06:42:17.735Z,98319.75
2023-01-18T06:44:29.319Z,98326.02
2023-01-18T06:46:43.874Z,98323.42
2023-01-18T06:48:55.978Z,98321.20
2023-01-18T06:51:08.171Z,98321.11
2023-01-18T06:53:20.900Z,98322.11
2023-01-18T06:55:34.766Z,98324.27
2023-01-18T06:57:47.938Z,98328.60
2023-01-18T07:00:02.091Z,98331.65
2023-01-18T07:02:16.739Z,98327.95
2023-01-18T07:04:28.737Z,98331.86
2023-01-18T07:06:40.328Z,98334.21
2023-01-18T07:08:52.219Z,98334.96
2023-01-18T07:11:07.106Z,98335.41
2023-01-18T07:13:20.509Z,98337.55
2023-01-18T07:15:32.407Z,98334.62
2023-01-18T07:17:45.314Z,98335.70
2023-01-18T07:19:57.412Z,98337.96
2023-01-18T07:22:09.460Z,98336.77
2023-01-18T07:24:22.431Z,98336.20
2023-01-18T07:26:34.113Z,98338.67
2023-01-18T07:28:47.346Z,98336.11
2023-01-18T07:31:02.709Z,98336.40
2023-01-18T07:33:14.396Z,98337.85
2023-01-18T07:35:27.727Z,98336.55
2023-01-18T07:37:40.231Z,98337.52
2023-01-18T07:39:52.543Z,98340.82
2023-01-18T07:42:05.145Z,98340.73
2023-01-18T07:44:18.925Z,98338.14
2023-01-18T07:46:31.657Z,98335.84
2023-01-18T07:48:45.233Z,98336.50
2023-01-18T07:51:00.114Z,98335.88
2023-01-18T07:53:12.021Z,98337.06
2023-01-18T07:55:24.795Z,98337.20
2023-01-18T07:57:36.301Z,98334.52
2023-01-18T07:59:48.163Z,98330.88
2023-01-18T08:01:59.973Z,98328.62
2023-01-18T08:04:11.846Z,98325.98
2023-01-18T08:06:26.094Z,98326.19
2023-01-18T08:08:38.296Z,98326.13
2023-01-18T08:10:55.000Z,98322.23
2023-01-18T08:13:11.284Z,98324.69
2023-01-18T08:15:23.188Z,98322.46
2023-01-18T08:17:35.719Z,98325.81
2023-01-18T08:19:47.248Z,98327.13
2023-01-18T08:21:59.281Z,98328.16
2023-01-18T08:24:11.472Z,98324.15
2023-01-18T08:26:23.369Z,98322.50
2023-01-18T08:28:35.566Z,98326.04
2023-01-18T08:30:48.940Z,98334.23
2023-01-18T08:33:02.745Z,98339.92
2023-01-18T08:35:14.631Z,98345.38
2023-01-18T08:37:26.632Z,98343.14
2023-01-18T08:39:38.815Z,98342.15
2023-01-18T08:41:50.501Z,98333.81
2023-01-18T08:44:02.503Z,98336.05
2023-01-18T08:46:15.764Z,98335.23
2023-01-18T08:48:28.028Z,98335.17
2023-01-18T08:50:39.911Z,98333.52
2023-01-18T08:52:52.697Z,98331.30
2023-01-18T08:55:05.418Z,98333.77
2023-01-18T08:57:17.343Z,98337.95
2023-01-18T08:59:29.051Z,98340.85
2023-01-18T09:01:40.695Z,98340.58
2023-01-18T09:03:57.694Z,98340.29
2023-01-18T09:06:12.481Z,98344.73
2023-01-18T09:08:24.883Z,98337.54
2023-01-18T09:10:37.697Z,98337.23
2023-01-18T09:12:51.104Z,98339.59
2023-01-18T09:15:05.067Z,98338.30
2023-01-18T09:17:19.315Z,98336.59
2023-01-18T09:19:31.205Z,98339.20
2023-01-18T09:21:45.248Z,98336.84
2023-01-18T09:23:59.497Z,98337.41
2023-01-18T09:26:17.089Z,98349.04
2023-01-18T09:28:29.321Z,98352.61
2023-01-18T09:30:41.111Z,98353.11
2023-01-18T09:32:52.799Z,98357.59
2023-01-18T09:35:06.285Z,98359.08
2023-01-18T09:37:19.292Z,98357.63
2023-01-18T09:39:40.207Z,98359.34
2023-01-18T09:42:01.584Z,98356.27
2023-01-18T09:44:29.636Z,98356.24
2023-01-18T09:46:42.793Z,98351.00
2023-01-18T09:48:57.463Z,98348.65
2023-01-18T09:51:20.822Z,98343.11
2023-01-18T09:53:55.096Z,98340.59
2023-01-18T09:56:20.871Z,98335.70
2023-01-18T09:58:57.893Z,98329.31
2023-01-18T10:01:18.172Z,98327.13
2023-01-18T10:03:59.161Z,98322.98
2023-01-18T10:06:21.700Z,98327.81
2023-01-18T10:08:36.253Z,98326.84
2023-01-18T10:11:09.884Z,98327.87
2023-01-18T10:13:34.382Z,98332.81
2023-01-18T10:15:46.645Z,98337.15
2023-01-18T10:18:00.771Z,98338.25
2023-01-18T10:20:34.286Z,98339.41
2023-01-18T10:22:52.889Z,98339.73
2023-01-18T10:25:32.893Z,98337.08
2023-01-18T10:28:08.242Z,98339.98
2023-01-18T10:30:55.962Z,98348.02
2023-01-18T10:33:18.710Z,98350.48
2023-01-18T10:35:39.924Z,98350.98
2023-01-18T10:37:55.298Z,98354.89
2023-01-18T10:40:10.350Z,98355.14
2023-01-18T10:42:48.061Z,98356.66
2023-01-18T10:44:59.950Z,98360.21
2023-01-18T10:47:12.155Z,98356.92
2023-01-18T10:49:42.888Z,98356.81
2023-01-18T10:51:54.983Z,98354.59
2023-01-18T10:54:19.368Z,98352.77
2023-01-18T10:56:31.282Z,98347.82
2023-01-18T10:58:52.183Z,98345.90
2023-01-18T11:01:04.741Z,98344.98
2023-01-18T11:03:17.074Z,98344.29
2023-01-18T11:05:31.936Z,98346.30
2023-01-18T11:07:44.237Z,98347.25
2023-01-18T11:10:01.711Z,98352.29
2023-01-18T11:12:41.548Z,98353.43
2023-01-18T11:14:53.501Z,98353.23
2023-01-18T11:17:12.691Z,98353.33
2023-01-18T11:19:26.548Z,98355.77
2023-01-18T11:21:41.309Z,98354.27
2023-01-18T11:23:55.345Z,98356.33
2023-01-18T11:26:15.207Z,98355.77
2023-01-18T11:28:39.657Z,98359.70
2023-01-18T11:31:08.771Z,98357.65
2023-01-18T11:33:23.795Z,98364.64
2023-01-18T11:35:37.332Z,98362.98
2023-01-18T11:37:48.999Z,98363.90
2023-01-18T11:40:21.630Z,98367.34
2023-01-18T11:42:37.865Z,98370.19
2023-01-18T11:45:07.215Z,98374.04
2023-01-18T11:47:32.027Z,98374.41
2023-01-18T11:49:53.009Z,98374.63
2023-01-18T11:52:36.260Z,98374.09
2023-01-18T11:55:02.063Z,98373.45
2023-01-18T11:57:14.432Z,98374.64
2023-01-18T11:59:35.661Z,98375.95
2023-01-18T12:02:05.854Z,98373.94
2023-01-18T12:04:55.689Z,98377.28
2023-01-18T12:07:33.080Z,98383.47
2023-01-18T12:10:07.517Z,98380.00
2023-01-18T12:12:53.613Z,98379.72
2023-01-18T12:15:31.805Z,98379.15
2023-01-18T12:18:22.298Z,98378.04
2023-01-18T12:20:53.874Z,98388.19
2023-01-18T12:23:27.270Z,98390.80
2023-01-18T12:25:57.699Z,98392.50
2023-01-18T12:28:20.971Z,98394.31
2023-01-18T12:30:58.334Z,98399.55
2023-01-18T12:33:20.590Z,98405.62
2023-01-18T12:36:07.063Z,98403.36
2023-01-18T12:38:23.357Z,98404.58
2023-01-18T12:40:41.300Z,98399.06
2023-01-18T12:43:02.198Z,98400.83
2023-01-18T12:45:23.101Z,98401.82
2023-01-18T12:47:49.432Z,98406.61
2023-01-18T12:50:07.294Z,98414.98
2023-01-18T12:52:22.538Z,98416.36
2023-01-18T12:54:42.318Z,98417.02
2023-01-18T12:56:57.245Z,98420.56
2023-01-18T12:59:19.574Z,98417.34
2023-01-18T13:01:39.266Z,98418.33
2023-01-18T13:03:57.836Z,98424.80
2023-01-18T13:06:10.550Z,98423.52
2023-01-18T13:08:31.660Z,98427.08
2023-01-18T13:10:44.879Z,98424.99
2023-01-18T13:12:58.120Z,98425.19
2023-01-18T13:15:35.598Z,98423.95
2023-01-18T13:17:56.866Z,98427.74
2023-01-18T13:20:09.730Z,98430.14
2023-01-18T13:22:31.857Z,98434.47
2023-01-18T13:25:11.932Z,98435.40
2023-01-18T13:27:24.419Z,98441.55
2023-01-18T13:29:37.127Z,98442.50
2023-01-18T13:31:49.433Z,98448.44
2023-01-18T13:34:01.835Z,98451.31
2023-01-18T13:36:17.553Z,98453.92
2023-01-18T13:38:41.096Z,98460.93
2023-01-18T13:40:55.813Z,98463.49
2023-01-18T13:43:29.955Z,98464.77
2023-01-18T13:46:02.442Z,98468.60
2023-01-18T13:49:03.061Z,98470.04
2023-01-18T13:51:36.715Z,98473.80
2023-01-18T13:53:50.301Z,98475.25
2023-01-18T13:56:08.811Z,98482.17
2023-01-18T13:58:29.873Z,98484.38
2023-01-18T14:00:48.402Z,98488.63
2023-01-18T14:03:16.895Z,98494.32
2023-01-18T14:05:46.416Z,98499.70
2023-01-18T14:08:01.893Z,98502.75
2023-01-18T14:10:49.205Z,98509.65
2023-01-18T14:13:03.643Z,98515.02
2023-01-18T14:15:46.924Z,98513.04
2023-01-18T14:17:59.472Z,98517.62
2023-01-18T14:20:29.490Z,98517.98
2023-01-18T14:23:17.682Z,98518.32
2023-01-18T14:25:58.109Z,98517.66
2023-01-18T14:29:07.133Z,98522.45
2023-01-18T14:31:26.850Z,98524.68
2023-01-18T14:33:42.612Z,98522.33
2023-01-18T14:36:01.171Z,98520.42
2023-01-18T14:38:18.872Z,98522.15
2023-01-18T14:40:31.713Z,98527.43
2023-01-18T14:43:01.122Z,98531.48
2023-01-18T14:45:40.968Z,98530.73
2023-01-18T14:47:55.191Z,98533.33
2023-01-18T14:50:16.385Z,98535.41
2023-01-18T14:52:32.386Z,98538.08
2023-01-18T14:54:56.026Z,98542.62
2023-01-18T14:57:14.545Z,98544.86
2023-01-18T14:59:27.893Z,98547.19
2023-01-18T15:01:40.637Z,98549.06
2023-01-18T15:03:55.285Z,98551.66
2023-01-18T15:06:16.063Z,98557.40
2023-01-18T15:08:30.713Z,98560.45
2023-01-18T15:10:44.278Z,98567.60
2023-01-18T15:12:59.044Z,98572.05
2023-01-18T15:15:22.404Z,98576.39
2023-01-18T15:17:37.288Z,98580.20
2023-01-18T15:19:57.267Z,98588.13
2023-01-18T15:22:12.642Z,98588.94
2023-01-18T15:24:29.448Z,98591.88
2023-01-18T15:26:53.146Z,98595.92
2023-01-18T15:29:09.384Z,98600.88
2023-01-18T15:31:21.207Z,98606.20
2023-01-18T15:33:35.343Z,98614.46
2023-01-18T15:35:50.386Z,98620.16
2023-01-18T15:38:05.174Z,98624.59
2023-01-18T15:40:17.239Z,98629.83
2023-01-18T15:42:36.975Z,98637.84
2023-01-18T15:44:52.185Z,98642.30
2023-01-18T15:47:15.760Z,98646.71
2023-01-18T15:49:27.957Z,98654.15
2023-01-18T15:51:56.641Z,98655.52
2023-01-18T15:54:15.290Z,98664.44
2023-01-18T15:56:32.862Z,98665.46
2023-01-18T15:58:50.088Z,98670.26
2023-01-18T16:01:13.923Z,98671.78
2023-01-18T16:03:29.969Z,98673.42
2023-01-18T16:05:41.888Z,98673.92
2023-01-18T16:08:21.670Z,98674.78
2023-01-18T16:10:34.038Z,98675.31
2023-01-18T16:12:46.140Z,98677.09
2023-01-18T16:14:58.027Z,98679.65
2023-01-18T16:17:24.520Z,98680.93
2023-01-18T16:19:41.986Z,98684.64
2023-01-18T16:22:06.176Z,98684.89
2023-01-18T16:24:30.856Z,98688.02
2023-01-18T16:26:44.178Z,98688.80
2023-01-18T16:29:06.834Z,98687.32
2023-01-18T16:31:23.012Z,98694.09
2023-01-18T16:33:35.325Z,98694.33
2023-01-18T16:35:48.648Z,98700.36
2023-01-18T16:38:04.095Z,98705.60
2023-01-18T16:40:19.044Z,98712.45
2023-01-18T16:42:38.588Z,98716.10
2023-01-18T16:44:52.747Z,98720.67
2023-01-18T16:47:05.311Z,98724.23
2023-01-18T16:49:18.400Z,98726.16
2023-01-18T16:51:32.000Z,98732.23
2023-01-18T16:53:45.201Z,98739.63
2023-01-18T16:55:58.149Z,98741.85
2023-01-18T16:58:13.737Z,98741.52
2023-01-18T17:00:34.091Z,98743.91
2023-01-18T17:02:47.192Z,98748.00
2023-01-18T17:04:59.823Z,98751.02
2023-01-18T17:07:13.422Z,98751.76
2023-01-18T17:09:32.370Z,98753.98
2023-01-18T17:11:45.907Z,98755.23
2023-01-18T17:14:01.324Z,98762.91
2023-01-18T17:16:20.110Z,98765.09
2023-01-18T17:18:32.053Z,98767.48
2023-01-18T17:20:44.878Z,98770.82
2023-01-18T17:22:58.307Z,98771.73
2023-01-18T17:25:12.543Z,98774.27
2023-01-18T17:27:25.490Z,98779.25
2023-01-18T17:29:38.516Z,98782.84
2023-01-18T17:31:53.222Z,98785.73
2023-01-18T17:34:07.500Z,98783.05
2023-01-18T17:36:20.975Z,98779.85
2023-01-18T17:38:36.535Z,98783.89
2023-01-18T17:40:49.306Z,98786.56
2023-01-18T17:43:01.647Z,98789.58
2023-01-18T17:45:16.671Z,98783.75
2023-01-18T17:47:30.152Z,98785.67
2023-01-18T17:49:42.034Z,98785.21
2023-01-18T17:51:53.988Z,98792.15
2023-01-18T17:54:13.152Z,98791.52
2023-01-18T17:56:33.235Z,98793.58
2023-01-18T17:58:47.839Z,98795.94
2023-01-18T18:01:11.579Z,98795.72
2023-01-18T18:03:23.764Z,98799.14
2023-01-18T18:05:35.647Z,98804.92
2023-01-18T18:07:49.795Z,98808.34
2023-01-18T18:10:02.360Z,98814.90
2023-01-18T18:12:14.190Z,98823.77
2023-01-18T18:14:26.097Z,98832.15
2023-01-18T18:16:49.389Z,98839.23
2023-01-18T18:19:03.111Z,98840.04
2023-01-18T18:21:47.829Z,98840.08
2023-01-18T18:24:04.034Z,98846.76
2023-01-18T18:26:16.854Z,98853.77
2023-01-18T18:28:29.969Z,98863.93
2023-01-18T18:30:41.658Z,98872.52
2023-01-18T18:32:55.501Z,98880.15
2023-01-18T18:35:23.219Z,98884.41
2023-01-18T18:37:36.895Z,98890.36
2023-01-18T18:39:49.499Z,98896.10
2023-01-18T18:42:01.759Z,98898.42
2023-01-18T18:44:14.622Z,98901.28
2023-01-18T18:46:26.857Z,98905.70
2023-01-18T18:48:39.120Z,98909.17
2023-01-18T18:50:52.317Z,98913.13
2023-01-18T18:53:03.968Z,98917.84
2023-01-18T18:55:16.331Z,98916.11
2023-01-18T18:57:29.561Z,98920.52
2023-01-18T18:59:41.679Z,98923.86
2023-01-18T19:01:55.800Z,98924.04
2023-01-18T19:04:08.201Z,98925.91
2023-01-18T19:06:23.343Z,98931.55
2023-01-18T19:08:35.264Z,98940.23
2023-01-18T19:10:51.316Z,98942.88
2023-01-18T19:13:05.001Z,98941.81
2023-01-18T19:15:17.306Z,98946.14
2023-01-18T19:17:31.038Z,98949.64
2023-01-18T19:19:47.319Z,98950.45
2023-01-18T19:21:59.520Z,98952.27
2023-01-18T19:24:11.310Z,98953.54
2023-01-18T19:26:22.999Z,98950.70
2023-01-18T19:28:36.431Z,98946.93
2023-01-18T19:30:50.987Z,98945.91
2023-01-18T19:33:03.649Z,98947.92
2023-01-18T19:35:23.471Z,98949.41
2023-01-18T19:37:38.843Z,98949.75
2023-01-18T19:39:50.636Z,98952.25
2023-01-18T19:42:02.942Z,98955.55
2023-01-18T19:44:14.622Z,98955.80
2023-01-18T19:46:26.603Z,98959.27
2023-01-18T19:48:40.618Z,98960.45
2023-01-18T19:50:54.089Z,98961.32
2023-01-18T19:53:06.801Z,98967.27
2023-01-18T19:56:06.450Z,98973.48
2023-01-18T19:58:47.908Z,98981.65
2023-01-18T20:01:00.296Z,98982.18
2023-01-18T20:03:13.696Z,98987.02
2023-01-18T20:05:28.506Z,98996.97
2023-01-18T20:07:41.392Z,99008.46
2023-01-18T20:09:53.236Z,99008.83
2023-01-18T20:12:05.604Z,99013.40
2023-01-18T20:14:18.565Z,99016.09
2023-01-18T20:16:31.124Z,99023.41
2023-01-18T20:18:43.236Z,99025.48
2023-01-18T20:20:56.962Z,99026.52
2023-01-18T20:23:11.717Z,99025.71
2023-01-18T20:25:25.760Z,99028.02
2023-01-18T20:27:37.958Z,99032.85
2023-01-18T20:29:51.191Z,99041.49
2023-01-18T20:32:15.152Z,99046.55
2023-01-18T20:34:27.971Z,99048.05
2023-01-18T20:36:40.888Z,99046.55
2023-01-18T20:38:52.677Z,99049.90
2023-01-18T20:41:06.265Z,99058.71
2023-01-18T20:43:18.651Z,99061.90
2023-01-18T20:45:31.399Z,99068.18
2023-01-18T20:47:44.956Z,99071.83
2023-01-18T20:49:56.849Z,99075.41
2023-01-18T20:52:11.404Z,99083.17
2023-01-18T20:54:22.934Z,99081.69
2023-01-18T20:56:34.676Z,99083.28
2023-01-18T20:58:47.217Z,99089.23
2023-01-18T21:01:07.644Z,99092.98
2023-01-18T21:03:19.776Z,99106.58
2023-01-18T21:05:31.360Z,99109.39
2023-01-18T21:07:43.357Z,99118.15
2023-01-18T21:09:56.274Z,99129.25
2023-01-18T21:12:08.264Z,99135.74
2023-01-18T21:14:23.418Z,99137.27
2023-01-18T21:16:48.281Z,99139.17
2023-01-18T21:19:00.838Z,99137.47
2023-01-18T21:21:13.291Z,99138.35
2023-01-18T21:23:26.359Z,99135.91
2023-01-18T21:25:38.361Z,99136.89
2023-01-18T21:27:53.620Z,99134.78
2023-01-18T21:30:06.965Z,99132.80
2023-01-18T21:32:53.760Z,99132.83
2023-01-18T21:35:06.171Z,99132.29
2023-01-18T21:37:17.960Z,99133.02
2023-01-18T21:39:40.459Z,99135.98
2023-01-18T21:43:01.936Z,99139.33
2023-01-18T21:45:35.294Z,99138.91
2023-01-18T21:48:15.099Z,99140.77
2023-01-18T21:50:47.400Z,99137.74
2023-01-18T21:53:19.688Z,99138.62
2023-01-18T21:55:31.833Z,99142.92
2023-01-18T21:57:44.006Z,99144.83
2023-01-18T21:59:55.593Z,99146.88
2023-01-18T22:02:09.966Z,99156.02
2023-01-18T22:04:40.618Z,99158.70
2023-01-18T22:06:54.374Z,99157.44
2023-01-18T22:09:20.669Z,99156.64
2023-01-18T22:11:33.253Z,99160.72
2023-01-18T22:13:45.446Z,99156.59
2023-01-18T22:16:02.706Z,99159.95
2023-01-18T22:18:14.456Z,99162.30
2023-01-18T22:20:26.552Z,99161.44
2023-01-18T22:22:38.418Z,99166.44
2023-01-18T22:24:50.136Z,99163.18
2023-01-18T22:27:01.718Z,99157.81
2023-01-18T22:29:13.852Z,99159.35
2023-01-18T22:31:26.122Z,99155.74
2023-01-18T22:33:37.904Z,99155.21
2023-01-18T22:35:49.538Z,99154.83
2023-01-18T22:38:01.806Z,99156.66
2023-01-18T22:40:14.207Z,99154.25
2023-01-18T22:42:26.192Z,99155.16
2023-01-18T22:44:37.986Z,99156.55
2023-01-18T22:46:50.078Z,99162.04
2023-01-18T22:49:01.668Z,99171.75
2023-01-18T22:51:16.718Z,99177.44
2023-01-18T22:53:31.697Z,99186.46
2023-01-18T22:55:43.384Z,99189.70
2023-01-18T22:57:55.276Z,99191.28
2023-01-18T23:00:07.990Z,99186.36
2023-01-18T23:02:19.981Z,99187.19
2023-01-18T23:04:34.133Z,99193.88
2023-01-18T23:06:48.005Z,99202.98
2023-01-18T23:09:00.368Z,99210.02
2023-01-18T23:11:21.989Z,99216.84
2023-01-18T23:13:33.780Z,99221.34
2023-01-18T23:16:04.621Z,99222.20
2023-01-18T23:18:16.711Z,99226.39
2023-01-18T23:20:28.919Z,99229.77
2023-01-18T23:22:41.316Z,99229.95
2023-01-18T23:24:53.104Z,99230.58
2023-01-18T23:27:07.150Z,99231.46
2023-01-18T23:29:19.087Z,99232.83
2023-01-18T23:31:30.875Z,99233.38
2023-01-18T23:33:45.691Z,99233.02
2023-01-18T23:35:57.792Z,99236.73
2023-01-18T23:38:09.479Z,99235.71
2023-01-18T23:40:40.010Z,99237.35
2023-01-18T23:43:13.710Z,99235.29
2023-01-18T23:45:44.550Z,99239.69
2023-01-18T23:48:15.282Z,99244.14
2023-01-18T23:50:46.033Z,99250.31
2023-01-18T23:53:20.706Z,99254.89
2023-01-18T23:55:32.744Z,99260.02
2023-01-18T23:57:44.834Z,99266.59
2023-01-18T23:59:58.945Z,99265.30
